sensor_id;sensor_type;location;lat;lon;timestamp;temperature;humidity
56268;DHT22;42175;46.930;9.532;2023-04-24T00:00:06;23.40;43.40
56268;DHT22;42175;46.930;9.532;2023-04-24T00:02:32;23.30;43.40
56268;DHT22;42175;46.930;9.532;2023-04-24T00:04:59;23.30;43.30
56268;DHT22;42175;46.930;9.532;2023-04-24T00:07:27;23.30;43.20
56268;DHT22;42175;46.930;9.532;2023-04-24T00:09:53;23.30;43.20
56268;DHT22;42175;46.930;9.532;2023-04-24T00:12:19;23.30;43.20
56268;DHT22;42175;46.930;9.532;2023-04-24T00:14:45;23.30;43.20
56268;DHT22;42175;46.930;9.532;2023-04-24T00:17:11;23.30;43.10
56268;DHT22;42175;46.930;9.532;2023-04-24T00:19:36;23.30;43.10
56268;DHT22;42175;46.930;9.532;2023-04-24T00:22:02;23.30;43.00
56268;DHT22;42175;46.930;9.532;2023-04-24T00:24:29;23.40;43.10
56268;DHT22;42175;46.930;9.532;2023-04-24T00:26:54;23.30;43.20
56268;DHT22;42175;46.930;9.532;2023-04-24T00:29:20;23.30;43.20
56268;DHT22;42175;46.930;9.532;2023-04-24T00:31:46;23.30;43.20
56268;DHT22;42175;46.930;9.532;2023-04-24T00:34:11;23.40;43.00
56268;DHT22;42175;46.930;9.532;2023-04-24T00:36:38;23.40;43.00
56268;DHT22;42175;46.930;9.532;2023-04-24T00:39:03;23.40;43.00
56268;DHT22;42175;46.930;9.532;2023-04-24T00:41:30;23.40;42.90
56268;DHT22;42175;46.930;9.532;2023-04-24T00:43:56;23.40;42.80
56268;DHT22;42175;46.930;9.532;2023-04-24T00:46:22;23.40;42.80
56268;DHT22;42175;46.930;9.532;2023-04-24T00:48:47;23.40;42.70
56268;DHT22;42175;46.930;9.532;2023-04-24T00:51:13;23.40;42.80
56268;DHT22;42175;46.930;9.532;2023-04-24T00:53:40;23.30;43.00
56268;DHT22;42175;46.930;9.532;2023-04-24T00:56:05;23.40;42.90
56268;DHT22;42175;46.930;9.532;2023-04-24T00:58:31;23.40;42.80
56268;DHT22;42175;46.930;9.532;2023-04-24T01:00:58;23.40;42.80
56268;DHT22;42175;46.930;9.532;2023-04-24T01:03:29;23.40;42.90
56268;DHT22;42175;46.930;9.532;2023-04-24T01:05:55;23.40;42.90
56268;DHT22;42175;46.930;9.532;2023-04-24T01:08:24;23.40;42.90
56268;DHT22;42175;46.930;9.532;2023-04-24T01:10:52;23.40;42.90
56268;DHT22;42175;46.930;9.532;2023-04-24T01:13:21;23.40;42.90
56268;DHT22;42175;46.930;9.532;2023-04-24T01:15:48;23.40;43.50
56268;DHT22;42175;46.930;9.532;2023-04-24T01:18:14;23.40;42.90
56268;DHT22;42175;46.930;9.532;2023-04-24T01:20:41;23.40;42.80
56268;DHT22;42175;46.930;9.532;2023-04-24T01:23:09;23.30;42.60
56268;DHT22;42175;46.930;9.532;2023-04-24T01:25:36;23.40;42.70
56268;DHT22;42175;46.930;9.532;2023-04-24T01:28:03;23.40;42.60
56268;DHT22;42175;46.930;9.532;2023-04-24T01:30:29;23.40;42.70
56268;DHT22;42175;46.930;9.532;2023-04-24T01:32:56;23.40;42.60
56268;DHT22;42175;46.930;9.532;2023-04-24T01:35:22;23.40;42.60
56268;DHT22;42175;46.930;9.532;2023-04-24T01:37:48;23.40;42.60
56268;DHT22;42175;46.930;9.532;2023-04-24T01:40:14;23.40;42.60
56268;DHT22;42175;46.930;9.532;2023-04-24T01:42:41;23.40;42.60
56268;DHT22;42175;46.930;9.532;2023-04-24T01:45:10;23.40;42.60
56268;DHT22;42175;46.930;9.532;2023-04-24T01:47:36;23.30;42.50
56268;DHT22;42175;46.930;9.532;2023-04-24T01:50:03;23.40;42.50
56268;DHT22;42175;46.930;9.532;2023-04-24T01:52:29;23.40;42.50
56268;DHT22;42175;46.930;9.532;2023-04-24T01:54:59;23.30;42.40
56268;DHT22;42175;46.930;9.532;2023-04-24T01:57:25;23.30;42.40
56268;DHT22;42175;46.930;9.532;2023-04-24T01:59:51;23.30;42.30
56268;DHT22;42175;46.930;9.532;2023-04-24T02:02:17;23.30;42.30
56268;DHT22;42175;46.930;9.532;2023-04-24T02:04:43;23.30;42.40
56268;DHT22;42175;46.930;9.532;2023-04-24T02:07:08;23.30;42.30
56268;DHT22;42175;46.930;9.532;2023-04-24T02:09:34;23.30;42.20
56268;DHT22;42175;46.930;9.532;2023-04-24T02:12:00;23.30;42.20
56268;DHT22;42175;46.930;9.532;2023-04-24T02:14:26;23.30;42.10
56268;DHT22;42175;46.930;9.532;2023-04-24T02:16:51;23.40;42.10
56268;DHT22;42175;46.930;9.532;2023-04-24T02:19:18;23.30;42.10
56268;DHT22;42175;46.930;9.532;2023-04-24T02:21:44;23.30;42.00
56268;DHT22;42175;46.930;9.532;2023-04-24T02:24:10;23.30;42.70
56268;DHT22;42175;46.930;9.532;2023-04-24T02:26:36;23.30;41.90
56268;DHT22;42175;46.930;9.532;2023-04-24T02:29:01;23.30;42.10
56268;DHT22;42175;46.930;9.532;2023-04-24T02:31:27;23.30;42.10
56268;DHT22;42175;46.930;9.532;2023-04-24T02:33:53;23.30;42.10
56268;DHT22;42175;46.930;9.532;2023-04-24T02:36:19;23.30;42.00
56268;DHT22;42175;46.930;9.532;2023-04-24T02:38:44;23.30;42.00
56268;DHT22;42175;46.930;9.532;2023-04-24T02:41:10;23.30;41.90
56268;DHT22;42175;46.930;9.532;2023-04-24T02:43:36;23.30;41.90
56268;DHT22;42175;46.930;9.532;2023-04-24T02:46:02;23.30;41.90
56268;DHT22;42175;46.930;9.532;2023-04-24T02:48:28;23.30;41.80
56268;DHT22;42175;46.930;9.532;2023-04-24T02:50:54;23.30;41.80
56268;DHT22;42175;46.930;9.532;2023-04-24T02:53:19;23.30;41.80
56268;DHT22;42175;46.930;9.532;2023-04-24T02:55:45;23.30;41.70
56268;DHT22;42175;46.930;9.532;2023-04-24T02:58:11;23.30;41.70
56268;DHT22;42175;46.930;9.532;2023-04-24T03:00:38;23.30;41.70
56268;DHT22;42175;46.930;9.532;2023-04-24T03:03:04;23.30;41.70
56268;DHT22;42175;46.930;9.532;2023-04-24T03:05:31;23.30;41.70
56268;DHT22;42175;46.930;9.532;2023-04-24T03:07:57;23.30;41.70
56268;DHT22;42175;46.930;9.532;2023-04-24T03:10:22;23.30;41.70
56268;DHT22;42175;46.930;9.532;2023-04-24T03:12:48;23.30;41.60
56268;DHT22;42175;46.930;9.532;2023-04-24T03:15:14;23.30;41.70
56268;DHT22;42175;46.930;9.532;2023-04-24T03:17:40;23.30;41.60
56268;DHT22;42175;46.930;9.532;2023-04-24T03:20:07;23.30;41.70
56268;DHT22;42175;46.930;9.532;2023-04-24T03:22:36;23.30;41.60
56268;DHT22;42175;46.930;9.532;2023-04-24T03:25:02;23.30;41.50
56268;DHT22;42175;46.930;9.532;2023-04-24T03:27:28;23.30;41.40
56268;DHT22;42175;46.930;9.532;2023-04-24T03:29:53;23.30;41.30
56268;DHT22;42175;46.930;9.532;2023-04-24T03:32:23;23.30;41.40
56268;DHT22;42175;46.930;9.532;2023-04-24T03:34:50;23.30;41.30
56268;DHT22;42175;46.930;9.532;2023-04-24T03:37:16;23.30;41.30
56268;DHT22;42175;46.930;9.532;2023-04-24T03:39:42;23.30;41.30
56268;DHT22;42175;46.930;9.532;2023-04-24T03:42:09;23.30;41.30
56268;DHT22;42175;46.930;9.532;2023-04-24T03:44:35;23.30;41.30
56268;DHT22;42175;46.930;9.532;2023-04-24T03:47:02;23.30;41.30
56268;DHT22;42175;46.930;9.532;2023-04-24T03:49:27;23.30;41.20
56268;DHT22;42175;46.930;9.532;2023-04-24T03:51:53;23.30;41.20
56268;DHT22;42175;46.930;9.532;2023-04-24T03:54:19;23.20;41.10
56268;DHT22;42175;46.930;9.532;2023-04-24T03:56:45;23.30;41.30
56268;DHT22;42175;46.930;9.532;2023-04-24T03:59:11;23.30;41.20
56268;DHT22;42175;46.930;9.532;2023-04-24T04:01:37;23.30;41.10
56268;DHT22;42175;46.930;9.532;2023-04-24T04:04:03;23.20;41.10
56268;DHT22;42175;46.930;9.532;2023-04-24T04:06:29;23.20;41.10
56268;DHT22;42175;46.930;9.532;2023-04-24T04:08:57;23.20;41.10
56268;DHT22;42175;46.930;9.532;2023-04-24T04:11:23;23.20;41.00
56268;DHT22;42175;46.930;9.532;2023-04-24T04:13:48;23.30;41.10
56268;DHT22;42175;46.930;9.532;2023-04-24T04:16:14;23.20;41.00
56268;DHT22;42175;46.930;9.532;2023-04-24T04:18:42;23.30;41.10
56268;DHT22;42175;46.930;9.532;2023-04-24T04:21:08;23.20;41.20
56268;DHT22;42175;46.930;9.532;2023-04-24T04:23:34;23.20;41.00
56268;DHT22;42175;46.930;9.532;2023-04-24T04:26:00;23.20;41.10
56268;DHT22;42175;46.930;9.532;2023-04-24T04:28:26;23.20;41.10
56268;DHT22;42175;46.930;9.532;2023-04-24T04:30:53;23.20;41.00
56268;DHT22;42175;46.930;9.532;2023-04-24T04:33:23;23.20;41.10
56268;DHT22;42175;46.930;9.532;2023-04-24T04:35:49;23.20;41.10
56268;DHT22;42175;46.930;9.532;2023-04-24T04:38:18;23.20;41.00
56268;DHT22;42175;46.930;9.532;2023-04-24T04:40:44;23.30;41.10
56268;DHT22;42175;46.930;9.532;2023-04-24T04:43:11;23.20;41.00
56268;DHT22;42175;46.930;9.532;2023-04-24T04:45:38;23.20;41.10
56268;DHT22;42175;46.930;9.532;2023-04-24T04:48:06;23.20;41.00
56268;DHT22;42175;46.930;9.532;2023-04-24T04:50:34;23.20;41.00
56268;DHT22;42175;46.930;9.532;2023-04-24T04:53:00;23.20;41.00
56268;DHT22;42175;46.930;9.532;2023-04-24T04:55:26;23.20;41.00
56268;DHT22;42175;46.930;9.532;2023-04-24T04:57:52;23.20;41.00
56268;DHT22;42175;46.930;9.532;2023-04-24T05:00:18;23.20;41.00
56268;DHT22;42175;46.930;9.532;2023-04-24T05:02:44;23.20;41.00
56268;DHT22;42175;46.930;9.532;2023-04-24T05:05:10;23.20;41.00
56268;DHT22;42175;46.930;9.532;2023-04-24T05:07:36;23.20;41.00
56268;DHT22;42175;46.930;9.532;2023-04-24T05:10:02;23.20;40.90
56268;DHT22;42175;46.930;9.532;2023-04-24T05:12:28;23.20;40.90
56268;DHT22;42175;46.930;9.532;2023-04-24T05:14:54;23.20;40.90
56268;DHT22;42175;46.930;9.532;2023-04-24T05:17:19;23.20;40.90
56268;DHT22;42175;46.930;9.532;2023-04-24T05:19:45;23.20;40.90
56268;DHT22;42175;46.930;9.532;2023-04-24T05:22:11;23.20;40.90
56268;DHT22;42175;46.930;9.532;2023-04-24T05:24:38;23.20;40.90
56268;DHT22;42175;46.930;9.532;2023-04-24T05:27:04;23.20;40.90
56268;DHT22;42175;46.930;9.532;2023-04-24T05:29:33;23.20;40.80
56268;DHT22;42175;46.930;9.532;2023-04-24T05:31:59;23.20;40.90
56268;DHT22;42175;46.930;9.532;2023-04-24T05:34:26;23.20;40.90
56268;DHT22;42175;46.930;9.532;2023-04-24T05:36:51;23.20;41.00
56268;DHT22;42175;46.930;9.532;2023-04-24T05:39:17;23.20;40.90
56268;DHT22;42175;46.930;9.532;2023-04-24T05:41:43;23.20;41.10
56268;DHT22;42175;46.930;9.532;2023-04-24T05:44:09;23.20;41.40
56268;DHT22;42175;46.930;9.532;2023-04-24T05:46:35;23.10;41.60
56268;DHT22;42175;46.930;9.532;2023-04-24T05:49:01;23.10;41.70
56268;DHT22;42175;46.930;9.532;2023-04-24T05:51:28;23.10;42.00
56268;DHT22;42175;46.930;9.532;2023-04-24T05:53:53;23.10;42.00
56268;DHT22;42175;46.930;9.532;2023-04-24T05:56:19;23.10;41.80
56268;DHT22;42175;46.930;9.532;2023-04-24T05:58:46;23.10;42.20
56268;DHT22;42175;46.930;9.532;2023-04-24T06:01:12;23.10;42.00
56268;DHT22;42175;46.930;9.532;2023-04-24T06:03:40;23.20;42.00
56268;DHT22;42175;46.930;9.532;2023-04-24T06:06:07;23.20;42.10
56268;DHT22;42175;46.930;9.532;2023-04-24T06:08:34;23.10;42.10
56268;DHT22;42175;46.930;9.532;2023-04-24T06:11:00;23.10;42.10
56268;DHT22;42175;46.930;9.532;2023-04-24T06:13:25;23.10;42.20
56268;DHT22;42175;46.930;9.532;2023-04-24T06:15:53;23.20;42.10
56268;DHT22;42175;46.930;9.532;2023-04-24T06:18:18;23.20;42.20
56268;DHT22;42175;46.930;9.532;2023-04-24T06:20:46;23.10;42.20
56268;DHT22;42175;46.930;9.532;2023-04-24T06:23:12;23.10;42.10
56268;DHT22;42175;46.930;9.532;2023-04-24T06:25:38;23.20;42.20
56268;DHT22;42175;46.930;9.532;2023-04-24T06:28:04;23.20;42.20
56268;DHT22;42175;46.930;9.532;2023-04-24T06:30:30;23.20;42.20
56268;DHT22;42175;46.930;9.532;2023-04-24T06:32:56;23.20;42.30
56268;DHT22;42175;46.930;9.532;2023-04-24T06:35:22;23.20;42.20
56268;DHT22;42175;46.930;9.532;2023-04-24T06:37:47;23.20;42.30
56268;DHT22;42175;46.930;9.532;2023-04-24T06:40:14;23.20;42.20
56268;DHT22;42175;46.930;9.532;2023-04-24T06:42:40;23.20;42.30
56268;DHT22;42175;46.930;9.532;2023-04-24T06:45:06;23.20;42.20
56268;DHT22;42175;46.930;9.532;2023-04-24T06:47:32;23.20;42.20
56268;DHT22;42175;46.930;9.532;2023-04-24T06:49:58;23.20;42.30
56268;DHT22;42175;46.930;9.532;2023-04-24T06:52:24;23.20;42.30
56268;DHT22;42175;46.930;9.532;2023-04-24T06:54:50;23.20;42.30
56268;DHT22;42175;46.930;9.532;2023-04-24T06:57:15;23.20;42.20
56268;DHT22;42175;46.930;9.532;2023-04-24T06:59:42;23.20;42.20
56268;DHT22;42175;46.930;9.532;2023-04-24T07:02:08;23.20;42.20
56268;DHT22;42175;46.930;9.532;2023-04-24T07:04:34;23.20;42.20
56268;DHT22;42175;46.930;9.532;2023-04-24T07:07:00;23.20;42.20
56268;DHT22;42175;46.930;9.532;2023-04-24T07:09:27;23.20;42.20
56268;DHT22;42175;46.930;9.532;2023-04-24T07:11:53;23.20;42.20
56268;DHT22;42175;46.930;9.532;2023-04-24T07:14:19;23.20;42.20
56268;DHT22;42175;46.930;9.532;2023-04-24T07:16:45;23.20;42.20
56268;DHT22;42175;46.930;9.532;2023-04-24T07:19:12;23.20;42.80
56268;DHT22;42175;46.930;9.532;2023-04-24T07:21:38;23.20;42.10
56268;DHT22;42175;46.930;9.532;2023-04-24T07:24:04;23.20;42.20
56268;DHT22;42175;46.930;9.532;2023-04-24T07:26:30;23.20;42.20
56268;DHT22;42175;46.930;9.532;2023-04-24T07:28:57;23.20;42.30
56268;DHT22;42175;46.930;9.532;2023-04-24T07:31:22;23.20;42.20
56268;DHT22;42175;46.930;9.532;2023-04-24T07:33:48;23.20;42.20
56268;DHT22;42175;46.930;9.532;2023-04-24T07:36:14;23.20;42.20
56268;DHT22;42175;46.930;9.532;2023-04-24T07:38:48;23.20;42.20
56268;DHT22;42175;46.930;9.532;2023-04-24T07:41:14;23.20;42.70
56268;DHT22;42175;46.930;9.532;2023-04-24T07:43:41;23.20;42.50
56268;DHT22;42175;46.930;9.532;2023-04-24T07:46:07;23.20;42.80
56268;DHT22;42175;46.930;9.532;2023-04-24T07:48:34;23.20;43.10
56268;DHT22;42175;46.930;9.532;2023-04-24T07:51:00;23.20;43.10
56268;DHT22;42175;46.930;9.532;2023-04-24T07:53:26;23.20;42.90
56268;DHT22;42175;46.930;9.532;2023-04-24T07:55:52;23.20;42.80
56268;DHT22;42175;46.930;9.532;2023-04-24T07:58:17;23.00;40.90
56268;DHT22;42175;46.930;9.532;2023-04-24T08:00:43;22.30;41.50
56268;DHT22;42175;46.930;9.532;2023-04-24T08:03:09;21.90;42.30
56268;DHT22;42175;46.930;9.532;2023-04-24T08:05:35;21.50;43.80
56268;DHT22;42175;46.930;9.532;2023-04-24T08:08:00;21.40;43.70
56268;DHT22;42175;46.930;9.532;2023-04-24T08:10:26;21.30;44.00
56268;DHT22;42175;46.930;9.532;2023-04-24T08:12:52;21.30;44.20
56268;DHT22;42175;46.930;9.532;2023-04-24T08:15:18;21.20;43.70
56268;DHT22;42175;46.930;9.532;2023-04-24T08:17:43;21.00;44.20
56268;DHT22;42175;46.930;9.532;2023-04-24T08:20:11;20.80;44.70
56268;DHT22;42175;46.930;9.532;2023-04-24T08:22:40;20.70;44.90
56268;DHT22;42175;46.930;9.532;2023-04-24T08:25:07;20.70;44.50
56268;DHT22;42175;46.930;9.532;2023-04-24T08:27:33;20.60;43.60
56268;DHT22;42175;46.930;9.532;2023-04-24T08:29:59;20.40;42.50
56268;DHT22;42175;46.930;9.532;2023-04-24T08:32:26;20.30;42.90
56268;DHT22;42175;46.930;9.532;2023-04-24T08:34:55;20.30;44.90
56268;DHT22;42175;46.930;9.532;2023-04-24T08:37:22;20.40;44.50
56268;DHT22;42175;46.930;9.532;2023-04-24T08:39:49;20.20;43.70
56268;DHT22;42175;46.930;9.532;2023-04-24T08:42:16;20.40;45.20
56268;DHT22;42175;46.930;9.532;2023-04-24T08:44:43;20.30;45.70
56268;DHT22;42175;46.930;9.532;2023-04-24T08:47:11;20.30;46.20
56268;DHT22;42175;46.930;9.532;2023-04-24T08:49:38;20.30;43.70
56268;DHT22;42175;46.930;9.532;2023-04-24T08:52:05;20.40;44.90
56268;DHT22;42175;46.930;9.532;2023-04-24T08:54:33;20.40;45.60
56268;DHT22;42175;46.930;9.532;2023-04-24T08:57:01;20.50;45.40
56268;DHT22;42175;46.930;9.532;2023-04-24T08:59:28;20.40;45.10
56268;DHT22;42175;46.930;9.532;2023-04-24T09:01:55;20.40;45.30
56268;DHT22;42175;46.930;9.532;2023-04-24T09:04:22;20.40;44.40
56268;DHT22;42175;46.930;9.532;2023-04-24T09:06:59;20.40;45.10
56268;DHT22;42175;46.930;9.532;2023-04-24T09:09:25;20.40;45.20
56268;DHT22;42175;46.930;9.532;2023-04-24T09:11:52;20.60;45.20
56268;DHT22;42175;46.930;9.532;2023-04-24T09:14:21;20.90;44.90
56268;DHT22;42175;46.930;9.532;2023-04-24T09:16:48;21.00;44.70
56268;DHT22;42175;46.930;9.532;2023-04-24T09:19:14;21.20;45.10
56268;DHT22;42175;46.930;9.532;2023-04-24T09:21:40;21.30;44.60
56268;DHT22;42175;46.930;9.532;2023-04-24T09:24:16;21.40;44.70
56268;DHT22;42175;46.930;9.532;2023-04-24T09:26:46;21.40;45.10
56268;DHT22;42175;46.930;9.532;2023-04-24T09:29:16;21.40;47.40
56268;DHT22;42175;46.930;9.532;2023-04-24T09:31:42;21.50;46.90
56268;DHT22;42175;46.930;9.532;2023-04-24T09:34:09;21.50;46.60
56268;DHT22;42175;46.930;9.532;2023-04-24T09:39:09;21.60;48.40
56268;DHT22;42175;46.930;9.532;2023-04-24T09:41:53;21.70;47.10
56268;DHT22;42175;46.930;9.532;2023-04-24T09:44:22;21.70;47.00
56268;DHT22;42175;46.930;9.532;2023-04-24T09:46:59;21.70;47.30
56268;DHT22;42175;46.930;9.532;2023-04-24T09:49:29;21.70;47.40
56268;DHT22;42175;46.930;9.532;2023-04-24T09:52:11;21.80;47.80
56268;DHT22;42175;46.930;9.532;2023-04-24T09:54:37;21.80;48.90
56268;DHT22;42175;46.930;9.532;2023-04-24T09:57:03;21.90;47.40
56268;DHT22;42175;46.930;9.532;2023-04-24T09:59:29;21.60;45.10
56268;DHT22;42175;46.930;9.532;2023-04-24T10:01:55;21.20;45.90
56268;DHT22;42175;46.930;9.532;2023-04-24T10:04:25;21.30;46.50
56268;DHT22;42175;46.930;9.532;2023-04-24T10:06:53;21.40;46.40
56268;DHT22;42175;46.930;9.532;2023-04-24T10:09:21;21.50;45.80
56268;DHT22;42175;46.930;9.532;2023-04-24T10:11:49;21.60;46.80
56268;DHT22;42175;46.930;9.532;2023-04-24T10:14:22;21.70;48.20
56268;DHT22;42175;46.930;9.532;2023-04-24T10:16:49;21.80;47.90
56268;DHT22;42175;46.930;9.532;2023-04-24T10:19:16;21.90;47.80
56268;DHT22;42175;46.930;9.532;2023-04-24T10:21:45;21.90;49.00
56268;DHT22;42175;46.930;9.532;2023-04-24T10:24:17;22.00;48.60
56268;DHT22;42175;46.930;9.532;2023-04-24T10:26:45;22.00;48.60
56268;DHT22;42175;46.930;9.532;2023-04-24T10:29:16;22.00;49.20
56268;DHT22;42175;46.930;9.532;2023-04-24T10:31:42;22.00;48.90
56268;DHT22;42175;46.930;9.532;2023-04-24T10:34:11;22.00;49.10
56268;DHT22;42175;46.930;9.532;2023-04-24T10:36:42;22.00;49.00
56268;DHT22;42175;46.930;9.532;2023-04-24T10:39:12;22.10;48.60
56268;DHT22;42175;46.930;9.532;2023-04-24T10:41:40;22.00;48.00
56268;DHT22;42175;46.930;9.532;2023-04-24T10:44:10;22.10;48.60
56268;DHT22;42175;46.930;9.532;2023-04-24T10:46:37;22.10;48.70
56268;DHT22;42175;46.930;9.532;2023-04-24T10:49:05;22.10;48.80
56268;DHT22;42175;46.930;9.532;2023-04-24T10:51:53;22.10;48.70
56268;DHT22;42175;46.930;9.532;2023-04-24T10:54:41;22.10;48.60
56268;DHT22;42175;46.930;9.532;2023-04-24T10:59:47;22.20;48.50
56268;DHT22;42175;46.930;9.532;2023-04-24T11:02:17;22.20;48.90
56268;DHT22;42175;46.930;9.532;2023-04-24T11:04:43;22.20;48.80
56268;DHT22;42175;46.930;9.532;2023-04-24T11:07:11;22.20;49.00
56268;DHT22;42175;46.930;9.532;2023-04-24T11:09:37;22.20;49.00
56268;DHT22;42175;46.930;9.532;2023-04-24T11:12:10;22.20;48.00
56268;DHT22;42175;46.930;9.532;2023-04-24T11:17:29;22.20;49.20
56268;DHT22;42175;46.930;9.532;2023-04-24T11:20:07;22.30;48.70
56268;DHT22;42175;46.930;9.532;2023-04-24T11:22:36;22.20;47.90
56268;DHT22;42175;46.930;9.532;2023-04-24T11:25:03;22.30;48.10
56268;DHT22;42175;46.930;9.532;2023-04-24T11:27:40;22.30;48.90
56268;DHT22;42175;46.930;9.532;2023-04-24T11:30:06;22.30;47.20
56268;DHT22;42175;46.930;9.532;2023-04-24T11:37:41;22.30;46.20
56268;DHT22;42175;46.930;9.532;2023-04-24T11:40:12;22.30;46.30
56268;DHT22;42175;46.930;9.532;2023-04-24T11:42:46;22.30;46.10
56268;DHT22;42175;46.930;9.532;2023-04-24T11:47:40;22.30;45.60
56268;DHT22;42175;46.930;9.532;2023-04-24T11:50:08;22.30;45.50
56268;DHT22;42175;46.930;9.532;2023-04-24T11:52:39;22.30;45.70
56268;DHT22;42175;46.930;9.532;2023-04-24T11:55:07;22.30;46.20
56268;DHT22;42175;46.930;9.532;2023-04-24T11:57:34;22.40;45.50
56268;DHT22;42175;46.930;9.532;2023-04-24T12:00:03;22.30;45.30
56268;DHT22;42175;46.930;9.532;2023-04-24T12:02:33;22.30;45.20
56268;DHT22;42175;46.930;9.532;2023-04-24T12:04:59;22.30;45.30
56268;DHT22;42175;46.930;9.532;2023-04-24T12:07:25;22.30;46.20
56268;DHT22;42175;46.930;9.532;2023-04-24T12:09:59;22.40;46.60
56268;DHT22;42175;46.930;9.532;2023-04-24T12:12:28;22.40;47.20
56268;DHT22;42175;46.930;9.532;2023-04-24T12:14:56;22.40;47.20
56268;DHT22;42175;46.930;9.532;2023-04-24T12:17:32;22.40;47.20
56268;DHT22;42175;46.930;9.532;2023-04-24T12:25:12;22.40;47.10
56268;DHT22;42175;46.930;9.532;2023-04-24T12:27:38;22.40;46.40
56268;DHT22;42175;46.930;9.532;2023-04-24T12:30:05;22.40;46.30
56268;DHT22;42175;46.930;9.532;2023-04-24T12:32:35;22.40;45.90
56268;DHT22;42175;46.930;9.532;2023-04-24T12:35:00;22.40;45.30
56268;DHT22;42175;46.930;9.532;2023-04-24T12:37:33;22.40;45.30
56268;DHT22;42175;46.930;9.532;2023-04-24T12:40:04;22.40;46.20
56268;DHT22;42175;46.930;9.532;2023-04-24T12:42:31;22.40;45.10
56268;DHT22;42175;46.930;9.532;2023-04-24T12:45:04;22.50;45.00
56268;DHT22;42175;46.930;9.532;2023-04-24T12:47:32;22.30;41.90
56268;DHT22;42175;46.930;9.532;2023-04-24T12:49:59;22.20;40.70
56268;DHT22;42175;46.930;9.532;2023-04-24T12:52:26;21.90;41.70
56268;DHT22;42175;46.930;9.532;2023-04-24T12:54:58;21.90;43.20
56268;DHT22;42175;46.930;9.532;2023-04-24T12:57:25;22.00;43.40
56268;DHT22;42175;46.930;9.532;2023-04-24T12:59:56;22.10;44.30
56268;DHT22;42175;46.930;9.532;2023-04-24T13:02:26;22.20;44.70
56268;DHT22;42175;46.930;9.532;2023-04-24T13:04:53;22.30;45.20
56268;DHT22;42175;46.930;9.532;2023-04-24T13:07:20;22.30;45.20
56268;DHT22;42175;46.930;9.532;2023-04-24T13:09:47;22.40;45.00
56268;DHT22;42175;46.930;9.532;2023-04-24T13:12:13;22.40;45.60
56268;DHT22;42175;46.930;9.532;2023-04-24T13:14:38;22.40;45.00
56268;DHT22;42175;46.930;9.532;2023-04-24T13:17:04;22.40;45.50
56268;DHT22;42175;46.930;9.532;2023-04-24T13:19:36;22.40;45.20
56268;DHT22;42175;46.930;9.532;2023-04-24T13:22:03;22.50;45.30
56268;DHT22;42175;46.930;9.532;2023-04-24T13:24:30;22.60;45.20
56268;DHT22;42175;46.930;9.532;2023-04-24T13:26:57;22.60;45.50
56268;DHT22;42175;46.930;9.532;2023-04-24T13:29:23;22.60;45.60
56268;DHT22;42175;46.930;9.532;2023-04-24T13:31:52;22.50;42.00
56268;DHT22;42175;46.930;9.532;2023-04-24T13:34:20;22.20;39.80
56268;DHT22;42175;46.930;9.532;2023-04-24T13:36:46;21.90;39.50
56268;DHT22;42175;46.930;9.532;2023-04-24T13:39:12;21.60;39.20
56268;DHT22;42175;46.930;9.532;2023-04-24T13:41:38;21.40;38.60
56268;DHT22;42175;46.930;9.532;2023-04-24T13:44:06;21.10;38.90
56268;DHT22;42175;46.930;9.532;2023-04-24T13:46:32;21.10;39.60
56268;DHT22;42175;46.930;9.532;2023-04-24T13:48:58;21.20;40.70
56268;DHT22;42175;46.930;9.532;2023-04-24T13:51:26;21.40;41.30
56268;DHT22;42175;46.930;9.532;2023-04-24T13:53:55;21.60;41.70
56268;DHT22;42175;46.930;9.532;2023-04-24T13:56:21;21.80;42.30
56268;DHT22;42175;46.930;9.532;2023-04-24T13:58:48;21.90;42.50
56268;DHT22;42175;46.930;9.532;2023-04-24T14:01:14;22.00;42.60
56268;DHT22;42175;46.930;9.532;2023-04-24T14:03:41;22.00;43.20
56268;DHT22;42175;46.930;9.532;2023-04-24T14:06:08;21.90;40.60
56268;DHT22;42175;46.930;9.532;2023-04-24T14:08:34;21.70;41.00
56268;DHT22;42175;46.930;9.532;2023-04-24T14:11:00;21.70;41.90
56268;DHT22;42175;46.930;9.532;2023-04-24T14:13:26;21.90;42.80
56268;DHT22;42175;46.930;9.532;2023-04-24T14:15:52;22.00;43.20
56268;DHT22;42175;46.930;9.532;2023-04-24T14:18:18;22.10;43.90
56268;DHT22;42175;46.930;9.532;2023-04-24T14:20:45;22.10;44.20
56268;DHT22;42175;46.930;9.532;2023-04-24T14:23:10;22.20;44.50
56268;DHT22;42175;46.930;9.532;2023-04-24T14:25:36;22.20;44.70
56268;DHT22;42175;46.930;9.532;2023-04-24T14:28:02;22.20;44.60
56268;DHT22;42175;46.930;9.532;2023-04-24T14:30:28;22.30;44.50
56268;DHT22;42175;46.930;9.532;2023-04-24T14:32:54;22.30;45.10
56268;DHT22;42175;46.930;9.532;2023-04-24T14:35:19;22.30;44.90
56268;DHT22;42175;46.930;9.532;2023-04-24T14:37:45;22.30;44.90
56268;DHT22;42175;46.930;9.532;2023-04-24T14:40:11;22.30;44.40
56268;DHT22;42175;46.930;9.532;2023-04-24T14:42:37;22.30;44.30
56268;DHT22;42175;46.930;9.532;2023-04-24T14:45:03;22.40;44.60
56268;DHT22;42175;46.930;9.532;2023-04-24T14:47:28;22.40;44.60
56268;DHT22;42175;46.930;9.532;2023-04-24T14:49:55;22.40;44.30
56268;DHT22;42175;46.930;9.532;2023-04-24T14:52:20;22.40;44.00
56268;DHT22;42175;46.930;9.532;2023-04-24T14:54:46;22.40;43.60
56268;DHT22;42175;46.930;9.532;2023-04-24T14:57:12;22.40;43.20
56268;DHT22;42175;46.930;9.532;2023-04-24T14:59:38;22.40;43.50
56268;DHT22;42175;46.930;9.532;2023-04-24T15:02:04;22.50;43.70
56268;DHT22;42175;46.930;9.532;2023-04-24T15:04:29;22.40;44.00
56268;DHT22;42175;46.930;9.532;2023-04-24T15:06:56;22.40;44.70
56268;DHT22;42175;46.930;9.532;2023-04-24T15:09:23;22.50;44.80
56268;DHT22;42175;46.930;9.532;2023-04-24T15:11:50;22.50;45.40
56268;DHT22;42175;46.930;9.532;2023-04-24T15:14:16;22.50;44.90
56268;DHT22;42175;46.930;9.532;2023-04-24T15:16:42;22.50;45.00
56268;DHT22;42175;46.930;9.532;2023-04-24T15:19:08;22.60;45.20
56268;DHT22;42175;46.930;9.532;2023-04-24T15:21:35;22.60;41.70
56268;DHT22;42175;46.930;9.532;2023-04-24T15:24:00;22.40;38.70
56268;DHT22;42175;46.930;9.532;2023-04-24T15:26:26;22.00;37.80
56268;DHT22;42175;46.930;9.532;2023-04-24T15:28:52;21.80;37.30
56268;DHT22;42175;46.930;9.532;2023-04-24T15:31:18;21.80;39.80
56268;DHT22;42175;46.930;9.532;2023-04-24T15:33:44;21.90;41.50
56268;DHT22;42175;46.930;9.532;2023-04-24T15:36:10;22.00;42.60
56268;DHT22;42175;46.930;9.532;2023-04-24T15:38:36;22.10;40.80
56268;DHT22;42175;46.930;9.532;2023-04-24T15:41:02;22.10;37.20
56268;DHT22;42175;46.930;9.532;2023-04-24T15:43:28;21.90;35.00
56268;DHT22;42175;46.930;9.532;2023-04-24T15:46:00;21.60;34.80
56268;DHT22;42175;46.930;9.532;2023-04-24T15:48:27;21.40;34.90